sensor_id;sensor_type;location;lat;lon;timestamp;P1;durP1;ratioP1;P2;durP2;ratioP2
57899;SDS011;60605;53.716;19.940;2022-09-28T00:00:24;25.60;;;19.40;;
57899;SDS011;60605;53.716;19.940;2022-09-28T00:05:47;27.70;;;21.80;;
57899;SDS011;60605;53.716;19.940;2022-09-28T00:16:02;27.90;;;20.80;;
57899;SDS011;60605;53.716;19.940;2022-09-28T00:21:10;25.50;;;21.60;;
57899;SDS011;60605;53.716;19.940;2022-09-28T00:26:21;30.20;;;22.30;;
57899;SDS011;60605;53.716;19.940;2022-09-28T00:31:25;31.40;;;23.60;;
57899;SDS011;60605;53.716;19.940;2022-09-28T00:36:32;28.60;;;23.00;;
57899;SDS011;60605;53.716;19.940;2022-09-28T00:41:37;34.80;;;23.20;;
57899;SDS011;60605;53.716;19.940;2022-09-28T00:46:40;28.50;;;22.10;;
57899;SDS011;60605;53.716;19.940;2022-09-28T00:56:48;26.90;;;19.00;;
57899;SDS011;60605;53.716;19.940;2022-09-28T01:01:52;26.70;;;20.50;;
57899;SDS011;60605;53.716;19.940;2022-09-28T01:06:56;26.00;;;20.70;;
57899;SDS011;60605;53.716;19.940;2022-09-28T01:12:00;20.30;;;15.70;;
57899;SDS011;60605;53.716;19.940;2022-09-28T01:22:59;12.60;;;10.40;;
57899;SDS011;60605;53.716;19.940;2022-09-28T01:28:22;12.00;;;8.80;;
57899;SDS011;60605;53.716;19.940;2022-09-28T01:33:31;8.50;;;7.10;;
57899;SDS011;60605;53.716;19.940;2022-09-28T01:39:16;7.70;;;6.80;;
57899;SDS011;60605;53.716;19.940;2022-09-28T01:44:13;6.30;;;5.40;;
57899;SDS011;60605;53.716;19.940;2022-09-28T01:54:47;5.20;;;4.70;;
57899;SDS011;60605;53.716;19.940;2022-09-28T01:59:56;4.80;;;4.40;;
57899;SDS011;60605;53.716;19.940;2022-09-28T02:05:10;7.60;;;5.60;;
57899;SDS011;60605;53.716;19.940;2022-09-28T02:10:23;6.60;;;5.40;;
57899;SDS011;60605;53.716;19.940;2022-09-28T02:20:35;5.30;;;4.80;;
57899;SDS011;60605;53.716;19.940;2022-09-28T02:25:44;4.00;;;3.60;;
57899;SDS011;60605;53.716;19.940;2022-09-28T02:30:53;2.80;;;2.50;;
57899;SDS011;60605;53.716;19.940;2022-09-28T02:35:57;5.70;;;2.20;;
57899;SDS011;60605;53.716;19.940;2022-09-28T02:41:03;2.50;;;2.00;;
57899;SDS011;60605;53.716;19.940;2022-09-28T03:07:53;3.30;;;1.80;;
57899;SDS011;60605;53.716;19.940;2022-09-28T03:13:02;1.90;;;1.80;;
57899;SDS011;60605;53.716;19.940;2022-09-28T03:18:06;2.00;;;1.90;;
57899;SDS011;60605;53.716;19.940;2022-09-28T03:23:10;2.10;;;1.70;;
57899;SDS011;60605;53.716;19.940;2022-09-28T03:28:28;2.70;;;1.70;;
57899;SDS011;60605;53.716;19.940;2022-09-28T03:33:31;1.60;;;1.50;;
57899;SDS011;60605;53.716;19.940;2022-09-28T03:38:34;2.50;;;2.20;;
57899;SDS011;60605;53.716;19.940;2022-09-28T03:43:38;2.80;;;1.60;;
57899;SDS011;60605;53.716;19.940;2022-09-28T03:48:41;2.10;;;1.90;;
57899;SDS011;60605;53.716;19.940;2022-09-28T03:53:44;1.90;;;1.80;;
57899;SDS011;60605;53.716;19.940;2022-09-28T03:58:47;2.10;;;1.50;;
57899;SDS011;60605;53.716;19.940;2022-09-28T04:03:53;1.60;;;1.50;;
57899;SDS011;60605;53.716;19.940;2022-09-28T04:08:57;1.90;;;1.70;;
57899;SDS011;60605;53.716;19.940;2022-09-28T04:14:00;3.00;;;1.70;;
57899;SDS011;60605;53.716;19.940;2022-09-28T04:24:07;2.20;;;1.80;;
57899;SDS011;60605;53.716;19.940;2022-09-28T04:29:11;2.10;;;1.90;;
57899;SDS011;60605;53.716;19.940;2022-09-28T04:34:18;3.50;;;1.70;;
57899;SDS011;60605;53.716;19.940;2022-09-28T04:39:23;2.40;;;2.10;;
57899;SDS011;60605;53.716;19.940;2022-09-28T04:49:29;2.50;;;2.20;;
57899;SDS011;60605;53.716;19.940;2022-09-28T04:54:33;2.90;;;2.60;;
57899;SDS011;60605;53.716;19.940;2022-09-28T04:59:36;3.20;;;2.60;;
57899;SDS011;60605;53.716;19.940;2022-09-28T05:04:39;2.60;;;2.40;;
57899;SDS011;60605;53.716;19.940;2022-09-28T05:09:42;3.80;;;2.40;;
57899;SDS011;60605;53.716;19.940;2022-09-28T05:14:45;6.70;;;3.00;;
57899;SDS011;60605;53.716;19.940;2022-09-28T05:24:52;3.80;;;2.90;;
57899;SDS011;60605;53.716;19.940;2022-09-28T05:29:56;5.70;;;3.90;;
57899;SDS011;60605;53.716;19.940;2022-09-28T05:40:03;4.80;;;4.10;;
57899;SDS011;60605;53.716;19.940;2022-09-28T05:45:08;6.10;;;5.40;;
57899;SDS011;60605;53.716;19.940;2022-09-28T05:50:12;7.10;;;6.30;;
57899;SDS011;60605;53.716;19.940;2022-09-28T05:55:17;8.10;;;6.30;;
57899;SDS011;60605;53.716;19.940;2022-09-28T06:00:21;7.80;;;6.50;;
57899;SDS011;60605;53.716;19.940;2022-09-28T06:05:25;13.20;;;8.80;;
57899;SDS011;60605;53.716;19.940;2022-09-28T06:10:29;11.10;;;9.60;;
57899;SDS011;60605;53.716;19.940;2022-09-28T06:15:34;9.10;;;7.20;;
57899;SDS011;60605;53.716;19.940;2022-09-28T06:20:39;27.10;;;14.50;;
57899;SDS011;60605;53.716;19.940;2022-09-28T06:25:44;6.80;;;6.10;;
57899;SDS011;60605;53.716;19.940;2022-09-28T06:30:48;6.20;;;5.50;;
57899;SDS011;60605;53.716;19.940;2022-09-28T06:35:53;14.00;;;8.10;;
57899;SDS011;60605;53.716;19.940;2022-09-28T06:40:57;223.30;;;103.90;;
57899;SDS011;60605;53.716;19.940;2022-09-28T06:46:01;50.30;;;20.10;;
57899;SDS011;60605;53.716;19.940;2022-09-28T06:51:06;22.80;;;9.20;;
57899;SDS011;60605;53.716;19.940;2022-09-28T06:56:10;8.30;;;6.00;;
57899;SDS011;60605;53.716;19.940;2022-09-28T07:01:14;5.90;;;5.30;;
57899;SDS011;60605;53.716;19.940;2022-09-28T07:06:19;3.40;;;3.10;;
57899;SDS011;60605;53.716;19.940;2022-09-28T07:11:26;4.00;;;3.60;;
57899;SDS011;60605;53.716;19.940;2022-09-28T07:16:32;6.80;;;4.30;;
57899;SDS011;60605;53.716;19.940;2022-09-28T07:21:57;4.60;;;3.40;;
57899;SDS011;60605;53.716;19.940;2022-09-28T07:27:07;9.30;;;5.40;;
57899;SDS011;60605;53.716;19.940;2022-09-28T07:32:11;14.10;;;10.20;;
57899;SDS011;60605;53.716;19.940;2022-09-28T07:37:15;9.10;;;6.50;;
57899;SDS011;60605;53.716;19.940;2022-09-28T07:42:20;13.30;;;10.60;;
57899;SDS011;60605;53.716;19.940;2022-09-28T07:47:24;8.40;;;6.40;;
57899;SDS011;60605;53.716;19.940;2022-09-28T07:52:36;12.00;;;10.70;;
57899;SDS011;60605;53.716;19.940;2022-09-28T07:57:39;7.10;;;6.10;;
57899;SDS011;60605;53.716;19.940;2022-09-28T08:02:43;6.70;;;5.90;;
57899;SDS011;60605;53.716;19.940;2022-09-28T08:12:56;6.90;;;6.10;;
57899;SDS011;60605;53.716;19.940;2022-09-28T08:18:04;7.80;;;7.10;;
57899;SDS011;60605;53.716;19.940;2022-09-28T08:23:08;7.30;;;6.60;;
57899;SDS011;60605;53.716;19.940;2022-09-28T08:28:13;7.70;;;7.00;;
57899;SDS011;60605;53.716;19.940;2022-09-28T08:33:19;7.30;;;6.60;;
57899;SDS011;60605;53.716;19.940;2022-09-28T08:38:24;8.50;;;6.40;;
57899;SDS011;60605;53.716;19.940;2022-09-28T08:43:50;8.00;;;6.30;;
57899;SDS011;60605;53.716;19.940;2022-09-28T08:49:08;7.70;;;5.50;;
57899;SDS011;60605;53.716;19.940;2022-09-28T08:54:35;6.20;;;5.60;;
57899;SDS011;60605;53.716;19.940;2022-09-28T08:59:54;5.60;;;5.10;;
57899;SDS011;60605;53.716;19.940;2022-09-28T09:05:02;6.70;;;5.40;;
57899;SDS011;60605;53.716;19.940;2022-09-28T09:10:22;5.80;;;5.30;;
57899;SDS011;60605;53.716;19.940;2022-09-28T09:21:45;4.80;;;4.30;;
57899;SDS011;60605;53.716;19.940;2022-09-28T09:27:17;5.50;;;5.00;;
57899;SDS011;60605;53.716;19.940;2022-09-28T09:48:46;3.50;;;3.10;;
57899;SDS011;60605;53.716;19.940;2022-09-28T09:54:03;4.70;;;3.40;;
57899;SDS011;60605;53.716;19.940;2022-09-28T09:59:15;4.20;;;3.90;;
57899;SDS011;60605;53.716;19.940;2022-09-28T10:04:27;3.70;;;3.30;;
57899;SDS011;60605;53.716;19.940;2022-09-28T10:09:38;3.70;;;3.40;;
57899;SDS011;60605;53.716;19.940;2022-09-28T10:14:45;4.00;;;3.60;;
57899;SDS011;60605;53.716;19.940;2022-09-28T10:19:49;3.50;;;3.10;;
57899;SDS011;60605;53.716;19.940;2022-09-28T10:24:53;3.30;;;3.10;;
57899;SDS011;60605;53.716;19.940;2022-09-28T10:30:01;3.20;;;3.00;;
57899;SDS011;60605;53.716;19.940;2022-09-28T10:40:25;4.00;;;3.60;;
57899;SDS011;60605;53.716;19.940;2022-09-28T10:46:26;5.50;;;3.60;;
57899;SDS011;60605;53.716;19.940;2022-09-28T10:56:43;5.10;;;3.30;;
57899;SDS011;60605;53.716;19.940;2022-09-28T11:01:51;3.40;;;3.20;;
57899;SDS011;60605;53.716;19.940;2022-09-28T11:06:57;2.40;;;2.30;;
57899;SDS011;60605;53.716;19.940;2022-09-28T11:12:03;2.70;;;2.40;;
57899;SDS011;60605;53.716;19.940;2022-09-28T11:17:17;3.30;;;3.00;;
57899;SDS011;60605;53.716;19.940;2022-09-28T11:27:35;2.90;;;2.60;;
57899;SDS011;60605;53.716;19.940;2022-09-28T11:32:42;3.00;;;2.80;;
57899;SDS011;60605;53.716;19.940;2022-09-28T11:38:13;3.90;;;3.10;;
57899;SDS011;60605;53.716;19.940;2022-09-28T11:54:25;3.50;;;3.00;;
57899;SDS011;60605;53.716;19.940;2022-09-28T11:59:37;3.80;;;2.90;;
57899;SDS011;60605;53.716;19.940;2022-09-28T12:04:53;3.40;;;3.20;;
57899;SDS011;60605;53.716;19.940;2022-09-28T12:15:51;4.10;;;3.00;;
57899;SDS011;60605;53.716;19.940;2022-09-28T12:21:48;2.90;;;2.70;;
57899;SDS011;60605;53.716;19.940;2022-09-28T12:27:11;3.30;;;3.10;;
57899;SDS011;60605;53.716;19.940;2022-09-28T12:32:28;3.50;;;3.30;;
57899;SDS011;60605;53.716;19.940;2022-09-28T12:43:37;3.70;;;3.40;;
57899;SDS011;60605;53.716;19.940;2022-09-28T12:54:46;3.00;;;2.80;;
57899;SDS011;60605;53.716;19.940;2022-09-28T13:05:27;2.80;;;2.60;;
57899;SDS011;60605;53.716;19.940;2022-09-28T13:21:39;2.70;;;2.50;;
57899;SDS011;60605;53.716;19.940;2022-09-28T13:26:49;2.90;;;2.50;;
57899;SDS011;60605;53.716;19.940;2022-09-28T13:31:55;3.10;;;2.90;;
57899;SDS011;60605;53.716;19.940;2022-09-28T14:03:26;2.10;;;2.00;;
57899;SDS011;60605;53.716;19.940;2022-09-28T14:09:08;2.30;;;1.90;;
57899;SDS011;60605;53.716;19.940;2022-09-28T14:19:21;5.10;;;2.30;;
57899;SDS011;60605;53.716;19.940;2022-09-28T14:35:30;2.50;;;2.40;;
57899;SDS011;60605;53.716;19.940;2022-09-28T15:02:07;3.50;;;3.10;;
57899;SDS011;60605;53.716;19.940;2022-09-28T15:07:22;4.70;;;2.90;;
57899;SDS011;60605;53.716;19.940;2022-09-28T15:12:28;3.70;;;3.30;;
57899;SDS011;60605;53.716;19.940;2022-09-28T15:17:34;3.40;;;3.10;;
57899;SDS011;60605;53.716;19.940;2022-09-28T15:22:47;3.70;;;3.10;;
57899;SDS011;60605;53.716;19.940;2022-09-28T15:27:55;5.70;;;3.90;;
57899;SDS011;60605;53.716;19.940;2022-09-28T15:33:23;5.00;;;3.70;;
57899;SDS011;60605;53.716;19.940;2022-09-28T15:38:52;5.10;;;3.90;;
57899;SDS011;60605;53.716;19.940;2022-09-28T15:49:58;5.00;;;4.20;;
57899;SDS011;60605;53.716;19.940;2022-09-28T15:54:52;4.50;;;4.10;;
57899;SDS011;60605;53.716;19.940;2022-09-28T15:59:59;10.40;;;4.80;;
57899;SDS011;60605;53.716;19.940;2022-09-28T16:05:27;62.80;;;25.40;;
57899;SDS011;60605;53.716;19.940;2022-09-28T16:10:38;38.70;;;19.90;;
57899;SDS011;60605;53.716;19.940;2022-09-28T16:16:00;55.30;;;24.20;;
57899;SDS011;60605;53.716;19.940;2022-09-28T16:21:25;77.50;;;41.60;;
57899;SDS011;60605;53.716;19.940;2022-09-28T16:26:31;107.10;;;52.20;;
57899;SDS011;60605;53.716;19.940;2022-09-28T16:31:39;186.00;;;86.90;;
57899;SDS011;60605;53.716;19.940;2022-09-28T16:36:46;429.10;;;149.00;;
57899;SDS011;60605;53.716;19.940;2022-09-28T16:41:51;213.00;;;96.10;;
57899;SDS011;60605;53.716;19.940;2022-09-28T16:46:59;108.00;;;56.70;;
57899;SDS011;60605;53.716;19.940;2022-09-28T16:52:07;144.40;;;72.00;;
57899;SDS011;60605;53.716;19.940;2022-09-28T16:57:15;86.90;;;44.80;;
57899;SDS011;60605;53.716;19.940;2022-09-28T17:02:20;87.60;;;53.30;;
57899;SDS011;60605;53.716;19.940;2022-09-28T17:07:48;284.90;;;92.70;;
57899;SDS011;60605;53.716;19.940;2022-09-28T17:13:02;90.30;;;48.30;;
57899;SDS011;60605;53.716;19.940;2022-09-28T17:18:06;139.10;;;75.00;;
57899;SDS011;60605;53.716;19.940;2022-09-28T17:23:10;156.20;;;85.80;;
57899;SDS011;60605;53.716;19.940;2022-09-28T17:33:22;124.90;;;67.80;;
57899;SDS011;60605;53.716;19.940;2022-09-28T17:38:27;95.80;;;51.00;;
57899;SDS011;60605;53.716;19.940;2022-09-28T17:48:34;97.30;;;57.90;;
57899;SDS011;60605;53.716;19.940;2022-09-28T17:53:38;66.10;;;41.50;;
57899;SDS011;60605;53.716;19.940;2022-09-28T17:58:43;65.00;;;41.70;;
57899;SDS011;60605;53.716;19.940;2022-09-28T18:03:47;203.00;;;106.30;;
57899;SDS011;60605;53.716;19.940;2022-09-28T18:08:52;282.70;;;154.50;;
57899;SDS011;60605;53.716;19.940;2022-09-28T18:13:58;178.00;;;76.00;;
57899;SDS011;60605;53.716;19.940;2022-09-28T18:19:04;161.70;;;52.70;;
57899;SDS011;60605;53.716;19.940;2022-09-28T18:24:09;92.40;;;42.70;;
57899;SDS011;60605;53.716;19.940;2022-09-28T18:29:18;95.50;;;43.60;;
57899;SDS011;60605;53.716;19.940;2022-09-28T18:34:22;230.80;;;106.50;;
57899;SDS011;60605;53.716;19.940;2022-09-28T18:39:28;111.50;;;60.80;;
57899;SDS011;60605;53.716;19.940;2022-09-28T18:44:33;74.10;;;34.60;;
57899;SDS011;60605;53.716;19.940;2022-09-28T18:49:38;62.60;;;33.60;;
57899;SDS011;60605;53.716;19.940;2022-09-28T18:54:48;91.20;;;51.90;;
57899;SDS011;60605;53.716;19.940;2022-09-28T18:59:53;116.80;;;58.10;;
57899;SDS011;60605;53.716;19.940;2022-09-28T19:04:57;67.30;;;33.30;;
57899;SDS011;60605;53.716;19.940;2022-09-28T19:10:02;47.80;;;29.40;;
57899;SDS011;60605;53.716;19.940;2022-09-28T19:15:08;31.30;;;17.50;;
57899;SDS011;60605;53.716;19.940;2022-09-28T19:20:15;40.70;;;23.60;;
57899;SDS011;60605;53.716;19.940;2022-09-28T19:25:22;54.20;;;28.70;;
57899;SDS011;60605;53.716;19.940;2022-09-28T19:30:29;28.20;;;15.40;;
57899;SDS011;60605;53.716;19.940;2022-09-28T19:35:35;30.60;;;15.50;;
57899;SDS011;60605;53.716;19.940;2022-09-28T19:40:39;23.50;;;14.80;;
57899;SDS011;60605;53.716;19.940;2022-09-28T19:45:45;30.70;;;15.20;;
57899;SDS011;60605;53.716;19.940;2022-09-28T19:51:04;30.60;;;16.70;;
57899;SDS011;60605;53.716;19.940;2022-09-28T19:56:08;50.70;;;34.50;;
57899;SDS011;60605;53.716;19.940;2022-09-28T20:01:12;90.50;;;61.40;;
57899;SDS011;60605;53.716;19.940;2022-09-28T20:06:15;24.90;;;17.30;;
57899;SDS011;60605;53.716;19.940;2022-09-28T20:11:19;20.10;;;15.20;;
57899;SDS011;60605;53.716;19.940;2022-09-28T20:16:24;42.90;;;17.70;;
57899;SDS011;60605;53.716;19.940;2022-09-28T20:21:29;32.00;;;14.90;;
57899;SDS011;60605;53.716;19.940;2022-09-28T20:26:33;9.20;;;7.30;;
57899;SDS011;60605;53.716;19.940;2022-09-28T20:31:39;8.80;;;6.40;;
57899;SDS011;60605;53.716;19.940;2022-09-28T20:36:43;6.40;;;5.70;;
57899;SDS011;60605;53.716;19.940;2022-09-28T20:41:46;6.40;;;5.50;;
57899;SDS011;60605;53.716;19.940;2022-09-28T20:46:51;16.10;;;7.50;;
57899;SDS011;60605;53.716;19.940;2022-09-28T20:51:55;11.40;;;7.10;;
57899;SDS011;60605;53.716;19.940;2022-09-28T20:56:58;8.00;;;4.70;;
57899;SDS011;60605;53.716;19.940;2022-09-28T21:02:01;9.80;;;6.10;;
57899;SDS011;60605;53.716;19.940;2022-09-28T21:07:05;8.00;;;6.50;;
57899;SDS011;60605;53.716;19.940;2022-09-28T21:12:10;4.70;;;3.80;;
57899;SDS011;60605;53.716;19.940;2022-09-28T21:17:15;4.70;;;4.20;;
57899;SDS011;60605;53.716;19.940;2022-09-28T21:27:21;4.70;;;3.80;;
57899;SDS011;60605;53.716;19.940;2022-09-28T21:37:28;4.20;;;3.60;;
57899;SDS011;60605;53.716;19.940;2022-09-28T21:42:31;4.00;;;3.40;;
57899;SDS011;60605;53.716;19.940;2022-09-28T21:52:38;7.10;;;5.00;;
57899;SDS011;60605;53.716;19.940;2022-09-28T21:57:41;6.70;;;5.50;;
57899;SDS011;60605;53.716;19.940;2022-09-28T22:07:47;11.50;;;9.40;;
57899;SDS011;60605;53.716;19.940;2022-09-28T22:17:54;12.40;;;7.80;;
57899;SDS011;60605;53.716;19.940;2022-09-28T22:22:57;8.40;;;6.50;;
57899;SDS011;60605;53.716;19.940;2022-09-28T22:28:00;7.80;;;6.70;;
57899;SDS011;60605;53.716;19.940;2022-09-28T22:33:03;12.30;;;8.50;;
57899;SDS011;60605;53.716;19.940;2022-09-28T22:38:06;13.80;;;9.90;;
57899;SDS011;60605;53.716;19.940;2022-09-28T22:43:10;9.70;;;8.30;;
57899;SDS011;60605;53.716;19.940;2022-09-28T22:53:17;9.20;;;7.50;;
57899;SDS011;60605;53.716;19.940;2022-09-28T22:58:21;8.30;;;7.00;;
57899;SDS011;60605;53.716;19.940;2022-09-28T23:03:25;8.60;;;7.60;;
57899;SDS011;60605;53.716;19.940;2022-09-28T23:08:28;13.60;;;10.10;;
57899;SDS011;60605;53.716;19.940;2022-09-28T23:18:35;10.50;;;9.30;;
57899;SDS011;60605;53.716;19.940;2022-09-28T23:23:42;12.20;;;9.00;;
57899;SDS011;60605;53.716;19.940;2022-09-28T23:28:47;18.10;;;9.60;;
57899;SDS011;60605;53.716;19.940;2022-09-28T23:43:57;13.00;;;9.00;;
57899;SDS011;60605;53.716;19.940;2022-09-28T23:49:00;12.30;;;10.30;;
57899;SDS011;60605;53.716;19.940;2022-09-28T23:54:04;15.40;;;11.30;;
57899;SDS011;60605;53.716;19.940;2022-09-28T23:59:08;12.20;;;9.80;;
